createdAt,value
2017-04-18T00:00:20.011Z,77.90
2017-04-18T00:01:20.450Z,77.70
2017-04-18T00:02:20.529Z,77.70
2017-04-18T00:03:21.303Z,77.80
2017-04-18T00:04:21.379Z,77.80
2017-04-18T00:05:21.399Z,77.70
2017-04-18T00:06:21.796Z,77.70
2017-04-18T00:07:21.853Z,77.30
2017-04-18T00:08:21.922Z,77.20
2017-04-18T00:09:22.787Z,77.80
2017-04-18T00:10:23.019Z,77.70
2017-04-18T00:11:23.715Z,77.80
2017-04-18T00:12:23.990Z,77.60
2017-04-18T00:13:24.036Z,77.50
2017-04-18T00:14:24.078Z,77.70
2017-04-18T00:15:24.194Z,77.90
2017-04-18T00:16:24.633Z,77.90
2017-04-18T00:17:24.648Z,77.60
2017-04-18T00:18:28.415Z,77.90
2017-04-18T00:19:28.485Z,77.90
2017-04-18T00:20:28.550Z,78.00
2017-04-18T00:21:28.902Z,78.00
2017-04-18T00:22:28.975Z,77.70
2017-04-18T00:23:29.130Z,78.30
2017-04-18T00:24:29.207Z,78.10
2017-04-18T00:25:29.282Z,78.70
2017-04-18T00:26:29.951Z,78.20
2017-04-18T00:27:31.233Z,78.20
2017-04-18T00:28:32.533Z,78.10
2017-04-18T00:29:33.482Z,78.20
2017-04-18T00:30:33.678Z,77.80
2017-04-18T00:31:34.127Z,78.20
2017-04-18T00:32:34.349Z,78.90
2017-04-18T00:33:34.522Z,78.40
2017-04-18T00:34:34.738Z,78.60
2017-04-18T00:35:34.911Z,78.20
2017-04-18T00:36:35.332Z,78.10
2017-04-18T00:37:35.425Z,78.10
2017-04-18T00:38:35.480Z,78.10
2017-04-18T00:39:35.655Z,78.00
2017-04-18T00:40:35.691Z,78.00
2017-04-18T00:41:36.121Z,78.00
2017-04-18T00:42:36.236Z,78.30
2017-04-18T00:43:36.319Z,78.30
2017-04-18T00:44:36.394Z,78.20
2017-04-18T00:45:36.471Z,77.70
2017-04-18T00:46:37.033Z,78.20
2017-04-18T00:47:37.137Z,79.00
2017-04-18T00:48:37.397Z,78.20
2017-04-18T00:49:37.494Z,77.80
2017-04-18T00:50:37.552Z,78.10
2017-04-18T00:51:38.077Z,78.30
2017-04-18T00:52:38.125Z,78.70
2017-04-18T00:53:38.315Z,78.10
2017-04-18T00:54:38.423Z,78.50
2017-04-18T00:55:38.581Z,78.70
2017-04-18T00:56:39.158Z,78.40
2017-04-18T00:57:39.288Z,77.80
2017-04-18T00:58:39.411Z,78.30
2017-04-18T00:59:39.547Z,78.40
2017-04-18T01:00:39.686Z,78.00
2017-04-18T01:01:40.097Z,78.20
2017-04-18T01:02:40.933Z,78.60
2017-04-18T01:03:41.071Z,79.00
2017-04-18T01:04:41.131Z,78.80
2017-04-18T01:05:41.262Z,79.00
2017-04-18T01:06:41.639Z,79.20
2017-04-18T01:07:41.770Z,79.20
2017-04-18T01:08:41.853Z,79.40
2017-04-18T01:09:41.956Z,78.90
2017-04-18T01:10:42.152Z,79.30
2017-04-18T01:11:43.840Z,78.50
2017-04-18T01:12:43.954Z,79.00
2017-04-18T01:13:44.041Z,78.40
2017-04-18T01:14:44.234Z,78.40
2017-04-18T01:15:44.332Z,78.30
2017-04-18T01:16:44.539Z,78.60
2017-04-18T01:17:44.756Z,78.60
2017-04-18T01:18:45.659Z,78.40
2017-04-18T01:19:45.806Z,78.60
2017-04-18T01:20:46.038Z,77.60
2017-04-18T01:21:46.158Z,78.00
2017-04-18T01:22:46.235Z,78.10
2017-04-18T01:23:46.419Z,78.10
2017-04-18T01:24:46.497Z,77.80
2017-04-18T01:25:46.604Z,78.20
2017-04-18T01:26:46.667Z,77.90
2017-04-18T01:27:46.752Z,78.10
2017-04-18T01:28:46.947Z,77.70
2017-04-18T01:29:47.049Z,78.10
2017-04-18T01:30:47.127Z,78.10
2017-04-18T01:31:47.371Z,77.90
2017-04-18T01:32:47.468Z,78.00
2017-04-18T01:33:47.628Z,77.80
2017-04-18T01:34:47.754Z,77.90
2017-04-18T01:35:47.917Z,78.50
2017-04-18T01:36:48.309Z,78.00
2017-04-18T01:37:48.359Z,78.40
2017-04-18T01:38:48.403Z,77.60
2017-04-18T01:39:53.332Z,77.70
2017-04-18T01:40:59.386Z,77.70
2017-04-18T01:44:06.418Z,78.00
2017-04-18T01:45:11.851Z,77.80
2017-04-18T01:46:43.296Z,78.50
2017-04-18T01:47:43.463Z,78.40
2017-04-18T01:48:43.633Z,78.60
2017-04-18T01:49:43.742Z,78.60
2017-04-18T01:50:43.805Z,78.50
2017-04-18T01:51:43.917Z,78.30
2017-04-18T01:52:44.656Z,78.00
2017-04-18T01:53:44.743Z,77.80
2017-04-18T01:54:44.870Z,77.80
2017-04-18T01:55:44.961Z,78.00
2017-04-18T01:56:46.507Z,77.30
2017-04-18T01:57:46.583Z,77.20
2017-04-18T01:58:46.764Z,77.50
2017-04-18T01:59:47.504Z,77.90
2017-04-18T02:00:47.572Z,76.80
2017-04-18T02:01:47.708Z,76.00
2017-04-18T02:02:47.712Z,76.50
2017-04-18T02:03:47.826Z,77.20
2017-04-18T02:04:47.906Z,76.60
2017-04-18T02:05:47.981Z,76.50
2017-04-18T02:06:48.152Z,76.00
2017-04-18T02:07:48.324Z,75.50
2017-04-18T02:08:48.395Z,75.70
2017-04-18T02:09:48.470Z,75.90
2017-04-18T02:10:48.727Z,76.40
2017-04-18T02:11:48.765Z,76.70
2017-04-18T02:12:48.999Z,76.10
2017-04-18T02:13:49.054Z,76.20
2017-04-18T02:14:49.132Z,76.00
2017-04-18T02:15:49.447Z,76.70
2017-04-18T02:16:49.481Z,77.00
2017-04-18T02:17:49.689Z,75.80
2017-04-18T02:18:49.905Z,76.30
2017-04-18T02:19:50.103Z,76.50
2017-04-18T02:20:50.379Z,75.30
2017-04-18T02:21:50.478Z,76.00
2017-04-18T02:22:51.419Z,76.80
2017-04-18T02:23:52.239Z,75.90
2017-04-18T02:24:52.315Z,75.20
2017-04-18T02:25:52.362Z,75.70
2017-04-18T02:26:52.428Z,76.10
2017-04-18T02:27:52.491Z,76.40
2017-04-18T02:28:52.613Z,76.50
2017-04-18T02:29:52.662Z,77.00
2017-04-18T02:30:52.805Z,75.70
2017-04-18T02:31:52.845Z,76.20
2017-04-18T02:32:53.622Z,76.50
2017-04-18T02:33:53.755Z,76.20
2017-04-18T02:34:53.790Z,76.30
2017-04-18T02:35:54.002Z,76.20
2017-04-18T02:36:54.054Z,76.20
2017-04-18T02:37:54.101Z,75.90
2017-04-18T02:38:54.880Z,75.90
2017-04-18T02:39:54.934Z,76.40
2017-04-18T02:40:54.972Z,76.50
2017-04-18T02:41:55.359Z,76.80
2017-04-18T02:42:55.503Z,76.80
2017-04-18T02:43:55.575Z,76.90
2017-04-18T02:44:55.612Z,76.90
2017-04-18T02:45:55.715Z,77.40
2017-04-18T02:46:55.807Z,77.20
2017-04-18T02:47:55.857Z,77.30
2017-04-18T02:48:55.940Z,77.40
2017-04-18T02:49:56.022Z,77.50
2017-04-18T02:50:57.451Z,77.70
2017-04-18T02:51:57.530Z,77.60
2017-04-18T02:52:57.683Z,77.80
2017-04-18T02:53:57.677Z,77.90
2017-04-18T02:54:58.053Z,77.40
2017-04-18T02:55:58.151Z,77.50
2017-04-18T02:56:58.203Z,77.60
2017-04-18T02:57:58.371Z,77.50
2017-04-18T02:58:58.479Z,78.00
2017-04-18T02:59:58.514Z,78.00
2017-04-18T03:00:58.537Z,78.00
2017-04-18T03:01:58.551Z,78.70
2017-04-18T03:02:58.559Z,78.50
2017-04-18T03:03:58.633Z,78.60
2017-04-18T03:04:58.726Z,79.20
2017-04-18T03:05:58.933Z,78.40
2017-04-18T03:06:58.962Z,78.40
2017-04-18T03:08:05.663Z,78.90
2017-04-18T03:09:05.919Z,78.90
2017-04-18T03:10:06.049Z,78.90
2017-04-18T03:11:06.086Z,78.80
2017-04-18T03:12:06.112Z,78.80
2017-04-18T03:13:06.215Z,78.50
2017-04-18T03:14:06.235Z,79.20
2017-04-18T03:15:06.314Z,78.70
2017-04-18T03:16:06.518Z,79.10
2017-04-18T03:17:06.606Z,78.90
2017-04-18T03:18:06.826Z,78.20
2017-04-18T03:19:06.957Z,78.30
2017-04-18T03:20:07.119Z,78.10
2017-04-18T03:21:13.616Z,78.20
2017-04-18T03:22:13.666Z,78.40
2017-04-18T03:23:13.739Z,78.00
2017-04-18T03:24:13.823Z,77.90
2017-04-18T03:25:13.960Z,77.70
2017-04-18T03:26:14.058Z,77.80
2017-04-18T03:27:14.155Z,78.10
2017-04-18T03:28:14.214Z,78.20
2017-04-18T03:29:14.279Z,78.00
2017-04-18T03:30:14.389Z,78.00
2017-04-18T03:31:14.545Z,77.90
2017-04-18T03:32:14.642Z,77.60
2017-04-18T03:33:14.686Z,77.90
2017-04-18T03:34:14.710Z,78.00
2017-04-18T03:35:14.857Z,78.50
2017-04-18T03:36:14.905Z,77.90
2017-04-18T03:37:14.940Z,77.60
2017-04-18T03:38:14.955Z,77.30
2017-04-18T03:39:14.986Z,77.80
2017-04-18T03:40:15.124Z,77.70
2017-04-18T03:41:15.169Z,77.80
2017-04-18T03:42:15.230Z,77.80
2017-04-18T03:43:15.289Z,77.10
2017-04-18T03:44:15.337Z,77.40
2017-04-18T03:45:15.460Z,78.00
2017-04-18T03:46:15.514Z,77.50
2017-04-18T03:47:15.547Z,77.20
2017-04-18T03:48:15.799Z,77.70
2017-04-18T03:49:15.873Z,76.80
2017-04-18T03:50:15.919Z,76.50
2017-04-18T03:51:16.498Z,76.70
2017-04-18T03:52:16.535Z,76.90
2017-04-18T03:53:16.637Z,76.70
2017-04-18T03:54:16.732Z,76.50
2017-04-18T03:55:16.758Z,76.50
2017-04-18T03:56:16.848Z,77.30
2017-04-18T03:57:16.924Z,77.20
2017-04-18T03:58:17.084Z,76.40
2017-04-18T03:59:17.150Z,76.70
2017-04-18T04:00:17.227Z,77.00
2017-04-18T04:01:17.263Z,76.20
2017-04-18T04:02:17.290Z,76.10
2017-04-18T04:03:17.417Z,76.40
2017-04-18T04:04:17.534Z,76.70
2017-04-18T04:05:17.583Z,75.70
2017-04-18T04:06:17.721Z,75.90
2017-04-18T04:07:18.573Z,76.00
2017-04-18T04:08:18.659Z,76.00
2017-04-18T04:09:18.727Z,75.90
2017-04-18T04:10:18.778Z,75.70
2017-04-18T04:11:18.835Z,76.30
2017-04-18T04:12:18.887Z,75.80
2017-04-18T04:13:18.962Z,75.20
2017-04-18T04:14:19.088Z,75.60
2017-04-18T04:15:19.191Z,75.70
2017-04-18T04:16:19.919Z,75.40
2017-04-18T04:17:19.929Z,75.90
2017-04-18T04:18:19.971Z,76.00
2017-04-18T04:19:20.012Z,75.30
2017-04-18T04:20:20.150Z,75.40
2017-04-18T04:21:20.467Z,75.30
2017-04-18T04:22:20.612Z,75.70
2017-04-18T04:23:20.678Z,75.70
2017-04-18T04:24:20.955Z,75.00
2017-04-18T04:25:21.003Z,75.10
2017-04-18T04:26:21.800Z,75.00
2017-04-18T04:27:21.822Z,74.80
2017-04-18T04:28:22.028Z,75.20
2017-04-18T04:29:22.415Z,74.70
2017-04-18T04:30:23.842Z,74.60
2017-04-18T04:31:23.921Z,75.20
2017-04-18T04:32:24.790Z,75.30
2017-04-18T04:33:24.972Z,74.00
2017-04-18T04:34:25.214Z,74.20
2017-04-18T04:35:25.925Z,74.40
2017-04-18T04:36:26.534Z,74.20
2017-04-18T04:37:26.598Z,74.40
2017-04-18T04:38:26.733Z,74.70
2017-04-18T04:39:26.880Z,74.50
2017-04-18T04:40:26.952Z,74.60
2017-04-18T04:41:27.007Z,73.90
2017-04-18T04:42:27.126Z,74.50
2017-04-18T04:43:27.270Z,74.60
2017-04-18T04:44:27.363Z,74.30
2017-04-18T04:45:27.498Z,74.60
2017-04-18T04:46:27.700Z,74.20
2017-04-18T04:47:27.766Z,75.00
2017-04-18T04:48:27.865Z,74.60
2017-04-18T04:49:27.987Z,72.70
2017-04-18T04:50:27.967Z,73.40
2017-04-18T04:51:28.015Z,73.10
2017-04-18T04:52:28.474Z,73.40
2017-04-18T04:53:28.528Z,74.00
2017-04-18T04:54:28.611Z,73.30
2017-04-18T04:55:28.688Z,73.10
2017-04-18T04:56:28.728Z,72.70
2017-04-18T04:57:28.803Z,72.60
2017-04-18T04:58:29.235Z,73.10
2017-04-18T04:59:29.241Z,73.20
2017-04-18T05:00:29.271Z,72.10
2017-04-18T05:01:29.477Z,71.70
2017-04-18T05:02:29.538Z,72.10
2017-04-18T05:03:30.688Z,72.60
2017-04-18T05:04:30.785Z,72.50
2017-04-18T05:05:31.035Z,72.50
2017-04-18T05:06:31.119Z,72.50
2017-04-18T05:07:31.901Z,73.30
2017-04-18T05:08:33.347Z,72.50
2017-04-18T05:09:33.412Z,71.60
2017-04-18T05:10:33.435Z,72.20
2017-04-18T05:11:33.487Z,72.50
2017-04-18T05:12:33.595Z,72.10
2017-04-18T05:13:34.583Z,72.60
2017-04-18T05:14:35.263Z,71.60
2017-04-18T05:15:35.467Z,71.40
2017-04-18T05:16:35.634Z,72.40
2017-04-18T05:17:35.696Z,72.60
2017-04-18T05:18:36.219Z,71.30
2017-04-18T05:19:36.804Z,72.00
2017-04-18T05:20:36.935Z,71.90
2017-04-18T05:21:36.928Z,71.00
2017-04-18T05:22:37.135Z,71.40
2017-04-18T05:23:37.286Z,71.90
2017-04-18T05:24:37.350Z,71.60
2017-04-18T05:25:37.426Z,71.40
2017-04-18T05:26:37.548Z,70.30
2017-04-18T05:27:38.121Z,70.50
2017-04-18T05:28:38.628Z,71.10
2017-04-18T05:29:38.669Z,71.10
2017-04-18T05:30:38.715Z,70.70
2017-04-18T05:31:38.799Z,71.10
2017-04-18T05:32:38.892Z,70.40
2017-04-18T05:33:39.344Z,71.10
2017-04-18T05:34:39.502Z,71.20
2017-04-18T05:35:40.042Z,71.10
2017-04-18T05:36:40.259Z,71.30
2017-04-18T05:37:40.453Z,71.20
2017-04-18T05:38:40.506Z,70.90
2017-04-18T05:39:40.549Z,71.70
2017-04-18T05:40:41.411Z,71.40
2017-04-18T05:41:41.481Z,71.00
2017-04-18T05:42:41.535Z,70.40
2017-04-18T05:43:41.667Z,70.90
2017-04-18T05:44:41.723Z,70.70
2017-04-18T05:45:41.766Z,70.80
2017-04-18T05:46:41.957Z,71.70
2017-04-18T05:47:42.136Z,71.00
2017-04-18T05:48:43.268Z,69.70
2017-04-18T05:49:43.388Z,69.60
2017-04-18T05:50:43.402Z,69.50
2017-04-18T05:51:44.329Z,69.30
2017-04-18T05:52:44.422Z,69.80
2017-04-18T05:53:44.494Z,68.90
2017-04-18T05:54:44.580Z,68.80
2017-04-18T05:55:44.625Z,67.20
2017-04-18T05:56:44.634Z,67.80
2017-04-18T05:57:44.704Z,67.50
2017-04-18T05:58:45.295Z,67.60
2017-04-18T05:59:45.426Z,68.20
2017-04-18T06:00:45.509Z,67.80
2017-04-18T06:01:45.619Z,68.40
2017-04-18T06:02:45.710Z,68.70
2017-04-18T06:03:46.086Z,67.10
2017-04-18T06:04:46.231Z,67.90
2017-04-18T06:05:46.255Z,68.50
2017-04-18T06:06:46.326Z,67.00
2017-04-18T06:07:47.650Z,66.30
2017-04-18T06:08:48.086Z,66.70
2017-04-18T06:09:48.935Z,67.30
2017-04-18T06:10:49.021Z,67.30
2017-04-18T06:11:49.403Z,67.20
2017-04-18T06:12:49.509Z,66.50
2017-04-18T06:13:50.162Z,65.80
2017-04-18T06:14:50.991Z,67.00
2017-04-18T06:15:51.058Z,65.30
2017-04-18T06:16:51.228Z,64.70
2017-04-18T06:17:51.409Z,65.50
2017-04-18T06:18:52.239Z,65.40
2017-04-18T06:19:52.455Z,65.60
2017-04-18T06:20:53.061Z,66.20
2017-04-18T06:21:53.298Z,64.70
2017-04-18T06:22:53.498Z,64.70
2017-04-18T06:23:53.650Z,65.40
2017-04-18T06:24:53.725Z,65.70
2017-04-18T06:25:54.174Z,66.20
2017-04-18T06:26:54.286Z,64.70
2017-04-18T06:27:54.448Z,64.70
2017-04-18T06:28:54.550Z,64.60
2017-04-18T06:29:54.705Z,65.10
2017-04-18T06:30:54.903Z,64.70
2017-04-18T06:31:55.410Z,64.70
2017-04-18T06:32:55.487Z,64.80
2017-04-18T06:33:55.685Z,64.80
2017-04-18T06:34:55.799Z,64.70
2017-04-18T06:35:55.802Z,64.10
2017-04-18T06:36:55.961Z,64.30
2017-04-18T06:37:56.104Z,64.50
2017-04-18T06:38:56.281Z,62.60
2017-04-18T06:39:56.363Z,63.80
2017-04-18T06:40:56.627Z,64.60
2017-04-18T06:41:56.801Z,63.70
2017-04-18T06:42:57.689Z,63.10
2017-04-18T06:43:57.942Z,63.10
2017-04-18T06:44:58.035Z,63.50
2017-04-18T06:45:58.107Z,64.00
2017-04-18T06:46:58.138Z,61.40
2017-04-18T06:47:59.145Z,59.90
2017-04-18T06:48:59.420Z,60.30
2017-04-18T06:50:00.168Z,59.50
2017-04-18T06:51:00.348Z,60.10
2017-04-18T06:52:00.465Z,59.30
2017-04-18T06:53:00.465Z,59.30
2017-04-18T06:54:00.529Z,59.00
2017-04-18T06:55:01.125Z,59.10
2017-04-18T06:56:01.194Z,59.00
2017-04-18T06:57:01.270Z,58.70
2017-04-18T06:58:01.345Z,59.10
2017-04-18T06:59:01.510Z,59.80
2017-04-18T07:00:01.629Z,59.70
2017-04-18T07:01:01.735Z,58.60
2017-04-18T07:02:01.810Z,58.30
2017-04-18T07:03:14.070Z,58.50
2017-04-18T07:04:14.974Z,58.50
2017-04-18T07:05:15.091Z,58.90
2017-04-18T07:06:15.233Z,58.80
2017-04-18T07:07:15.271Z,56.60
2017-04-18T07:08:15.438Z,56.60
2017-04-18T07:09:15.622Z,56.60
2017-04-18T07:10:15.691Z,56.60
2017-04-18T07:11:15.761Z,55.50
2017-04-18T07:12:15.907Z,54.60
2017-04-18T07:13:15.945Z,53.10
2017-04-18T07:14:18.347Z,54.00
2017-04-18T07:15:18.453Z,54.50
2017-04-18T07:16:18.534Z,54.50
2017-04-18T07:17:18.594Z,54.50
2017-04-18T07:18:18.641Z,55.00
2017-04-18T07:19:19.173Z,54.60
2017-04-18T07:20:19.229Z,55.20
2017-04-18T07:21:19.305Z,55.10
2017-04-18T07:22:19.394Z,56.00
2017-04-18T07:23:19.510Z,54.70
2017-04-18T07:24:20.013Z,54.60
2017-04-18T07:25:20.851Z,54.20
2017-04-18T07:26:21.047Z,55.40
2017-04-18T07:27:21.202Z,54.30
2017-04-18T07:28:21.318Z,54.50
2017-04-18T07:29:22.148Z,53.70
2017-04-18T07:30:22.274Z,54.30
2017-04-18T07:31:22.391Z,53.00
2017-04-18T07:32:22.506Z,53.80
2017-04-18T07:33:22.553Z,53.50
2017-04-18T07:34:23.042Z,54.90
2017-04-18T07:35:23.795Z,54.40
2017-04-18T07:36:23.829Z,52.80
2017-04-18T07:37:23.893Z,52.20
2017-04-18T07:38:24.493Z,52.00
2017-04-18T07:39:25.950Z,51.10
2017-04-18T07:40:26.031Z,51.20
2017-04-18T07:41:26.121Z,49.20
2017-04-18T07:42:26.308Z,48.80
2017-04-18T07:43:27.837Z,49.40
2017-04-18T07:44:28.356Z,47.10
2017-04-18T07:45:28.444Z,48.30
2017-04-18T07:46:28.796Z,49.10
2017-04-18T07:47:28.932Z,49.70
2017-04-18T07:48:29.039Z,50.00
2017-04-18T07:49:29.773Z,50.30
2017-04-18T07:50:30.030Z,50.90
2017-04-18T07:51:30.128Z,49.70
2017-04-18T07:52:30.233Z,50.40
2017-04-18T07:53:30.446Z,50.80
2017-04-18T07:54:30.913Z,51.30
2017-04-18T07:55:31.666Z,51.40
2017-04-18T07:56:31.962Z,52.30
2017-04-18T07:57:32.604Z,54.60
2017-04-18T07:58:32.692Z,52.90
2017-04-18T07:59:32.844Z,54.70
2017-04-18T08:00:32.961Z,55.30
2017-04-18T08:01:33.216Z,55.90
2017-04-18T08:02:33.875Z,55.70
2017-04-18T08:03:34.105Z,56.70
2017-04-18T08:04:34.616Z,56.80
2017-04-18T08:05:34.724Z,55.60
2017-04-18T08:06:34.872Z,55.50
2017-04-18T08:07:34.865Z,54.30
2017-04-18T08:08:35.083Z,53.40
2017-04-18T08:09:35.564Z,52.60
2017-04-18T08:10:35.665Z,52.10
2017-04-18T08:11:36.618Z,51.80
2017-04-18T08:12:36.693Z,52.20
2017-04-18T08:13:44.063Z,52.40
2017-04-18T08:14:44.146Z,52.50
2017-04-18T08:15:44.191Z,52.30
2017-04-18T08:16:44.358Z,51.80
2017-04-18T08:17:44.562Z,52.80
2017-04-18T08:18:45.333Z,53.30
2017-04-18T08:19:46.718Z,52.60
2017-04-18T08:20:46.774Z,51.10
2017-04-18T08:21:46.821Z,51.10
2017-04-18T08:22:46.960Z,52.40
2017-04-18T08:23:47.070Z,52.00
2017-04-18T08:24:47.193Z,51.50
2017-04-18T08:25:47.470Z,51.10
2017-04-18T08:26:47.514Z,51.70
2017-04-18T08:27:47.647Z,51.70
2017-04-18T08:28:48.484Z,52.40
2017-04-18T08:29:49.176Z,52.30
2017-04-18T08:30:49.471Z,52.50
2017-04-18T08:31:50.257Z,52.60
2017-04-18T08:32:50.357Z,53.90
2017-04-18T08:33:50.403Z,54.80
2017-04-18T08:34:50.545Z,55.70
2017-04-18T08:35:51.346Z,56.80
2017-04-18T08:36:51.430Z,56.50
2017-04-18T08:37:51.565Z,56.40
2017-04-18T08:38:51.594Z,56.30
2017-04-18T08:39:51.668Z,56.30
2017-04-18T08:40:52.010Z,56.50
2017-04-18T08:41:52.088Z,56.60
2017-04-18T08:42:52.283Z,56.10
2017-04-18T08:43:52.382Z,56.40
2017-04-18T08:44:52.435Z,56.50
2017-04-18T08:45:52.502Z,56.60
2017-04-18T08:46:52.750Z,56.90
2017-04-18T08:47:52.877Z,57.20
2017-04-18T08:48:53.850Z,57.70
2017-04-18T08:49:53.922Z,58.20
2017-04-18T08:50:54.186Z,59.10
2017-04-18T08:51:54.217Z,58.70
2017-04-18T08:52:54.253Z,58.30
2017-04-18T08:53:55.085Z,58.70
2017-04-18T08:54:55.115Z,58.70
2017-04-18T08:55:55.235Z,58.30
2017-04-18T08:56:55.347Z,57.60
2017-04-18T08:57:56.197Z,57.60
2017-04-18T08:58:56.310Z,57.30
2017-04-18T08:59:56.650Z,57.90
2017-04-18T09:00:57.254Z,57.40
2017-04-18T09:01:57.395Z,57.50
2017-04-18T09:02:57.523Z,58.00
2017-04-18T09:03:57.718Z,57.50
2017-04-18T09:04:57.746Z,57.20
2017-04-18T09:05:57.802Z,57.00
2017-04-18T09:06:57.857Z,58.20
2017-04-18T09:07:57.922Z,58.10
2017-04-18T09:08:58.017Z,58.40
2017-04-18T09:09:58.150Z,58.50
2017-04-18T09:10:59.020Z,58.50
2017-04-18T09:11:59.770Z,58.10
2017-04-18T09:12:59.831Z,58.50
2017-04-18T09:14:00.456Z,59.20
2017-04-18T09:15:00.489Z,57.40
2017-04-18T09:16:00.651Z,56.80
2017-04-18T09:17:00.796Z,56.70
2017-04-18T09:18:00.796Z,56.60
2017-04-18T09:19:00.817Z,56.60
2017-04-18T09:20:00.914Z,55.70
2017-04-18T09:21:01.022Z,56.30
2017-04-18T09:22:01.106Z,55.90
2017-04-18T09:23:01.109Z,56.40
2017-04-18T09:24:01.219Z,57.00
2017-04-18T09:25:01.283Z,55.00
2017-04-18T09:26:01.307Z,55.10
2017-04-18T09:27:01.329Z,55.50
2017-04-18T09:28:01.322Z,54.50
2017-04-18T09:29:01.411Z,54.40
2017-04-18T09:30:01.456Z,54.60
2017-04-18T09:31:01.569Z,54.40
2017-04-18T09:32:02.379Z,54.60
2017-04-18T09:33:02.417Z,54.80
2017-04-18T09:34:02.540Z,54.70
2017-04-18T09:35:02.635Z,55.10
2017-04-18T09:36:02.621Z,55.00
2017-04-18T09:37:02.764Z,54.40
2017-04-18T09:38:02.919Z,53.80
2017-04-18T09:39:03.042Z,53.70
2017-04-18T09:40:03.311Z,53.60
2017-04-18T09:41:03.325Z,53.80
2017-04-18T09:42:03.357Z,53.30
2017-04-18T09:43:03.430Z,52.90
2017-04-18T09:44:10.371Z,53.30
2017-04-18T09:45:10.374Z,52.90
2017-04-18T09:46:10.956Z,53.70
2017-04-18T09:47:10.992Z,52.70
2017-04-18T09:48:11.065Z,52.50
2017-04-18T09:49:11.243Z,52.20
2017-04-18T09:50:11.296Z,52.30
2017-04-18T09:51:11.334Z,52.00
2017-04-18T09:52:11.530Z,52.50
2017-04-18T09:53:11.627Z,51.80
2017-04-18T09:54:11.632Z,51.90
2017-04-18T09:55:11.679Z,51.10
2017-04-18T09:56:11.751Z,51.90
2017-04-18T09:57:11.810Z,50.70
2017-04-18T09:58:11.906Z,50.70
2017-04-18T09:59:11.898Z,50.60
2017-04-18T10:00:12.321Z,50.30
2017-04-18T10:01:12.398Z,48.70
2017-04-18T10:02:13.150Z,49.20
2017-04-18T10:03:13.196Z,48.10
2017-04-18T10:04:13.344Z,47.80
2017-04-18T10:05:13.572Z,47.80
2017-04-18T10:06:13.780Z,47.60
2017-04-18T10:07:13.825Z,47.60
2017-04-18T10:08:13.871Z,47.90
2017-04-18T10:09:13.923Z,47.90
2017-04-18T10:10:13.931Z,47.50
2017-04-18T10:11:14.038Z,47.50
2017-04-18T10:12:14.160Z,48.70
2017-04-18T10:13:14.201Z,47.30
2017-04-18T10:14:20.437Z,47.60
2017-04-18T10:15:20.536Z,47.40
2017-04-18T10:16:20.646Z,47.90
2017-04-18T10:17:20.671Z,48.10
2017-04-18T10:18:20.774Z,47.60
2017-04-18T10:19:20.868Z,48.10
2017-04-18T10:20:20.925Z,47.90
2017-04-18T10:21:21.706Z,47.20
2017-04-18T10:22:21.788Z,46.70
2017-04-18T10:23:21.902Z,47.00
2017-04-18T10:24:22.071Z,46.90
2017-04-18T10:25:23.482Z,46.90
2017-04-18T10:26:23.543Z,46.10
2017-04-18T10:27:23.598Z,44.70
2017-04-18T10:28:23.675Z,45.00
2017-04-18T10:29:24.090Z,45.20
2017-04-18T10:30:24.134Z,44.30
2017-04-18T10:31:24.137Z,44.40
2017-04-18T10:32:24.221Z,44.60
2017-04-18T10:33:24.304Z,42.60
2017-04-18T10:34:24.375Z,43.90
2017-04-18T10:35:24.459Z,44.30
2017-04-18T10:36:24.561Z,41.70
2017-04-18T10:37:24.685Z,42.80
2017-04-18T10:38:24.825Z,42.40
2017-04-18T10:39:24.966Z,42.30
2017-04-18T10:40:25.090Z,42.90
2017-04-18T10:41:25.284Z,40.50
2017-04-18T10:42:25.352Z,39.30
2017-04-18T10:43:25.686Z,38.10
2017-04-18T10:44:26.734Z,37.90
2017-04-18T10:45:26.903Z,38.50
2017-04-18T10:46:27.027Z,39.20
2017-04-18T10:47:27.103Z,40.60
2017-04-18T10:48:27.205Z,42.30
2017-04-18T10:49:28.041Z,43.70
2017-04-18T10:50:28.062Z,44.70
2017-04-18T10:51:28.130Z,45.60
2017-04-18T10:52:28.201Z,46.50
2017-04-18T10:53:28.264Z,47.20
2017-04-18T10:54:28.316Z,47.70
2017-04-18T10:55:28.507Z,49.10
2017-04-18T10:56:30.253Z,48.40
2017-04-18T10:57:30.378Z,47.50
2017-04-18T10:58:31.163Z,47.90
2017-04-18T10:59:31.220Z,48.70
2017-04-18T11:00:31.283Z,48.60
2017-04-18T11:01:32.071Z,48.60
2017-04-18T11:02:32.167Z,49.00
2017-04-18T11:03:32.326Z,49.20
2017-04-18T11:04:32.902Z,49.60
2017-04-18T11:05:32.913Z,50.00
2017-04-18T11:06:32.924Z,50.60
2017-04-18T11:07:32.902Z,50.00
2017-04-18T11:08:33.052Z,50.00
2017-04-18T11:09:39.476Z,50.20
2017-04-18T11:10:39.608Z,49.40
2017-04-18T11:11:39.685Z,48.70
2017-04-18T11:12:39.810Z,49.10
2017-04-18T11:13:39.854Z,48.70
2017-04-18T11:14:40.690Z,48.60
2017-04-18T11:15:40.871Z,48.50
2017-04-18T11:16:40.980Z,48.20
2017-04-18T11:17:41.785Z,48.10
2017-04-18T11:18:41.789Z,48.70
2017-04-18T11:19:41.817Z,48.20
2017-04-18T11:20:41.845Z,48.70
2017-04-18T11:21:41.972Z,48.50
2017-04-18T11:22:42.293Z,48.40
2017-04-18T11:23:42.325Z,48.40
2017-04-18T11:24:42.435Z,48.40
2017-04-18T11:25:42.524Z,48.80
2017-04-18T11:26:42.554Z,48.00
2017-04-18T11:27:42.682Z,47.80
2017-04-18T11:28:42.851Z,47.80
2017-04-18T11:29:43.918Z,47.70
2017-04-18T11:30:44.000Z,48.30
2017-04-18T11:31:44.898Z,47.20
2017-04-18T11:32:44.884Z,47.30
2017-04-18T11:33:44.935Z,47.90
2017-04-18T11:34:44.967Z,46.40
2017-04-18T11:35:45.800Z,47.10
2017-04-18T11:36:45.866Z,46.70
2017-04-18T11:37:45.947Z,46.90
2017-04-18T11:38:46.149Z,46.80
2017-04-18T11:39:46.279Z,46.90
2017-04-18T11:40:46.370Z,46.70
2017-04-18T11:41:46.419Z,44.30
2017-04-18T11:42:47.298Z,44.20
2017-04-18T11:43:47.461Z,44.20
2017-04-18T11:44:47.494Z,44.40
2017-04-18T11:45:47.543Z,44.40
2017-04-18T11:46:47.566Z,44.40
2017-04-18T11:47:47.599Z,43.40
2017-04-18T11:48:47.660Z,43.50
2017-04-18T11:49:47.711Z,43.00
2017-04-18T11:50:47.974Z,42.10
2017-04-18T11:51:48.788Z,42.20
2017-04-18T11:52:48.862Z,42.90
2017-04-18T11:53:48.954Z,43.20
2017-04-18T11:54:49.750Z,43.30
2017-04-18T11:55:49.783Z,43.00
2017-04-18T11:56:49.820Z,42.80
2017-04-18T11:57:50.897Z,44.00
2017-04-18T11:58:50.942Z,45.00
2017-04-18T11:59:51.220Z,44.20
2017-04-18T12:00:51.187Z,41.00
2017-04-18T12:01:52.226Z,40.40
2017-04-18T12:02:52.319Z,40.40
2017-04-18T12:03:52.384Z,40.40
2017-04-18T12:04:52.434Z,40.40
2017-04-18T12:05:52.614Z,40.50
2017-04-18T12:06:53.794Z,40.40
2017-04-18T12:07:53.928Z,40.40
2017-04-18T12:08:54.503Z,40.40
2017-04-18T12:09:54.513Z,41.80
2017-04-18T12:10:54.585Z,42.90
2017-04-18T12:11:55.392Z,42.40
2017-04-18T12:12:55.510Z,41.30
2017-04-18T12:13:55.718Z,42.00
2017-04-18T12:14:55.724Z,42.00
2017-04-18T12:15:55.736Z,43.00
2017-04-18T12:16:55.818Z,42.90
2017-04-18T12:17:55.901Z,43.50
2017-04-18T12:18:55.978Z,43.90
2017-04-18T12:19:55.954Z,44.00
2017-04-18T12:20:56.087Z,43.70
2017-04-18T12:21:57.322Z,43.50
2017-04-18T12:22:57.381Z,43.80
2017-04-18T12:23:57.456Z,43.90
2017-04-18T12:24:57.547Z,44.30
2017-04-18T12:25:58.444Z,43.60
2017-04-18T12:26:58.547Z,42.90
2017-04-18T12:27:59.423Z,43.90
2017-04-18T12:28:59.511Z,43.10
2017-04-18T12:30:00.444Z,42.70
2017-04-18T12:31:00.591Z,41.70
2017-04-18T12:32:00.818Z,42.30
2017-04-18T12:33:00.934Z,42.30
2017-04-18T12:34:01.135Z,42.40
2017-04-18T12:35:01.610Z,41.50
2017-04-18T12:36:02.462Z,41.80
2017-04-18T12:37:03.251Z,42.00
2017-04-18T12:38:03.390Z,42.50
2017-04-18T12:39:03.625Z,41.90
2017-04-18T12:40:03.665Z,42.30
2017-04-18T12:41:03.739Z,41.70
2017-04-18T12:42:03.774Z,41.70
2017-04-18T12:43:03.834Z,41.40
2017-04-18T12:44:03.981Z,42.10
2017-04-18T12:45:04.056Z,41.50
2017-04-18T12:46:04.834Z,42.10
2017-04-18T12:47:05.473Z,42.20
2017-04-18T12:48:05.549Z,42.50
2017-04-18T12:49:06.201Z,42.90
2017-04-18T12:50:07.090Z,42.20
2017-04-18T12:51:07.178Z,40.60
2017-04-18T12:52:07.958Z,40.30
2017-04-18T12:53:08.758Z,40.30
2017-04-18T12:54:08.897Z,38.70
2017-04-18T12:55:08.945Z,39.10
2017-04-18T12:56:09.051Z,38.50
2017-04-18T12:57:09.203Z,37.90
2017-04-18T12:58:09.305Z,38.00
2017-04-18T12:59:09.505Z,37.40